createdAt,value
2022-08-19T00:01:30.810Z,7.03
2022-08-19T00:04:03.178Z,7.50
2022-08-19T00:06:33.248Z,7.20
2022-08-19T00:09:03.857Z,7.10
2022-08-19T00:11:32.570Z,6.75
2022-08-19T00:14:04.667Z,7.35
2022-08-19T00:16:34.942Z,6.72
2022-08-19T00:19:05.420Z,6.80
2022-08-19T00:21:34.396Z,6.85
2022-08-19T00:24:10.512Z,7.20
2022-08-19T00:26:41.745Z,7.03
2022-08-19T00:29:15.300Z,7.50
2022-08-19T00:31:45.327Z,7.28
2022-08-19T00:34:16.127Z,7.12
2022-08-19T00:36:45.459Z,7.33
2022-08-19T00:39:16.492Z,7.45
2022-08-19T00:41:50.514Z,7.35
2022-08-19T00:44:26.642Z,7.37
2022-08-19T00:46:58.845Z,7.40
2022-08-19T00:49:37.246Z,7.75
2022-08-19T00:52:12.209Z,7.40
2022-08-19T00:54:42.803Z,6.92
2022-08-19T00:57:14.598Z,6.92
2022-08-19T00:59:58.779Z,7.65
2022-08-19T01:02:24.693Z,7.10
2022-08-19T01:04:55.281Z,7.35
2022-08-19T01:07:24.596Z,7.60
2022-08-19T01:12:52.626Z,7.10
2022-08-19T01:15:28.907Z,6.50
2022-08-19T01:17:59.799Z,6.42
2022-08-19T01:20:30.323Z,6.70
2022-08-19T01:23:17.637Z,7.20
2022-08-19T01:25:57.504Z,7.03
2022-08-19T01:28:34.109Z,5.85
2022-08-19T01:31:08.188Z,6.55
2022-08-19T01:33:36.550Z,5.90
2022-08-19T01:36:11.820Z,6.40
2022-08-19T01:38:49.054Z,6.20
2022-08-19T01:41:19.107Z,6.35
2022-08-19T01:44:13.698Z,7.40
2022-08-19T01:46:25.056Z,7.28
2022-08-19T01:48:53.748Z,7.60
2022-08-19T01:51:23.951Z,7.53
2022-08-19T01:53:53.967Z,8.28
2022-08-19T01:56:22.697Z,7.47
2022-08-19T01:59:00.166Z,7.08
2022-08-19T02:01:30.409Z,7.35
2022-08-19T02:04:03.860Z,8.10
2022-08-19T02:06:32.579Z,8.35
2022-08-19T02:09:01.897Z,7.12
2022-08-19T02:11:34.461Z,8.55
2022-08-19T02:14:08.992Z,7.85
2022-08-19T02:16:39.367Z,7.40
2022-08-19T02:19:17.128Z,7.72
2022-08-19T02:21:46.388Z,8.40
2022-08-19T02:24:15.196Z,8.35
2022-08-19T02:26:43.921Z,8.35
2022-08-19T02:29:12.713Z,7.92
2022-08-19T02:31:41.497Z,7.65
2022-08-19T02:34:11.420Z,7.60
2022-08-19T02:36:42.522Z,7.47
2022-08-19T02:39:11.439Z,6.70
2022-08-19T02:41:40.227Z,7.35
2022-08-19T02:44:30.136Z,6.87
2022-08-19T02:46:41.229Z,7.67
2022-08-19T02:49:13.139Z,7.25
2022-08-19T02:51:46.567Z,7.80
2022-08-19T02:54:19.607Z,7.45
2022-08-19T02:56:48.374Z,7.97
2022-08-19T02:59:17.079Z,7.33
2022-08-19T03:01:48.564Z,7.67
2022-08-19T03:04:18.269Z,7.67
2022-08-19T03:06:48.876Z,7.33
2022-08-19T03:09:19.400Z,7.95
2022-08-19T03:11:48.626Z,7.35
2022-08-19T03:14:19.188Z,7.97
2022-08-19T03:16:51.002Z,7.70
2022-08-19T03:19:22.385Z,8.38
2022-08-19T03:21:52.014Z,8.23
2022-08-19T03:24:21.629Z,9.53
2022-08-19T03:26:53.637Z,8.63
2022-08-19T03:29:30.100Z,8.40
2022-08-19T03:31:55.621Z,7.97
2022-08-19T03:34:30.807Z,8.13
2022-08-19T03:37:01.684Z,7.58
2022-08-19T03:39:30.433Z,8.60
2022-08-19T03:42:33.187Z,8.65
2022-08-19T03:44:33.323Z,8.40
2022-08-19T03:47:05.566Z,8.13
2022-08-19T03:49:36.939Z,8.10
2022-08-19T03:52:07.919Z,8.25
2022-08-19T03:54:41.075Z,8.43
2022-08-19T03:57:17.094Z,8.33
2022-08-19T03:59:48.482Z,8.20
2022-08-19T04:02:17.037Z,8.58
2022-08-19T04:04:46.315Z,8.65
2022-08-19T04:07:26.375Z,8.43
2022-08-19T04:09:54.821Z,8.48
2022-08-19T04:12:23.953Z,8.98
2022-08-19T04:14:55.670Z,9.00
2022-08-19T04:17:30.518Z,8.78
2022-08-19T04:19:59.727Z,9.03
2022-08-19T04:22:34.179Z,8.70
2022-08-19T04:25:03.164Z,8.75
2022-08-19T04:27:33.948Z,9.30
2022-08-19T04:30:03.086Z,8.83
2022-08-19T04:32:38.053Z,9.20
2022-08-19T04:35:17.416Z,9.15
2022-08-19T04:37:43.908Z,9.28
2022-08-19T04:40:32.859Z,10.23
2022-08-19T04:43:02.405Z,11.05
2022-08-19T04:45:39.612Z,11.93
2022-08-19T04:48:27.425Z,10.65
2022-08-19T04:50:34.545Z,10.63
2022-08-19T04:53:04.591Z,10.78
2022-08-19T04:55:38.205Z,10.72
2022-08-19T04:58:05.973Z,11.05
2022-08-19T05:00:35.221Z,10.30
2022-08-19T05:03:05.072Z,10.72
2022-08-19T05:05:45.372Z,10.90
2022-08-19T05:08:12.712Z,10.82
2022-08-19T05:10:43.315Z,10.72
2022-08-19T05:13:13.525Z,10.85
2022-08-19T05:15:42.688Z,10.28
2022-08-19T05:18:29.809Z,11.28
2022-08-19T05:21:16.944Z,10.50
2022-08-19T05:23:46.171Z,10.40
2022-08-19T05:26:15.803Z,11.60
2022-08-19T05:28:44.432Z,10.72
2022-08-19T05:31:15.496Z,10.03
2022-08-19T05:33:47.800Z,10.10
2022-08-19T05:36:16.962Z,11.90
2022-08-19T05:39:08.434Z,10.98
2022-08-19T05:41:31.802Z,11.00
2022-08-19T05:44:02.447Z,10.93
2022-08-19T05:46:31.986Z,10.90
2022-08-19T05:49:02.096Z,11.15
2022-08-19T05:51:33.230Z,11.45
2022-08-19T05:54:04.246Z,10.55
2022-08-19T05:56:34.031Z,11.48
2022-08-19T05:59:02.705Z,17.82
2022-08-19T06:01:31.422Z,11.85
2022-08-19T06:04:02.042Z,12.65
2022-08-19T06:06:31.080Z,10.38
2022-08-19T06:09:01.298Z,9.65
2022-08-19T06:11:44.502Z,9.80
2022-08-19T06:14:18.149Z,10.95
2022-08-19T06:16:52.283Z,10.40
2022-08-19T06:19:26.577Z,11.10
2022-08-19T06:21:55.321Z,10.43
2022-08-19T06:24:28.437Z,10.95
2022-08-19T06:27:01.646Z,9.95
2022-08-19T06:29:31.985Z,10.53
2022-08-19T06:32:03.582Z,9.68
2022-08-19T06:34:35.076Z,10.80
2022-08-19T06:37:05.508Z,9.50
2022-08-19T06:39:37.960Z,10.00
2022-08-19T06:45:34.750Z,10.48
2022-08-19T06:48:00.568Z,9.25
2022-08-19T06:50:39.695Z,9.48
2022-08-19T06:55:56.746Z,9.03
2022-08-19T06:58:28.781Z,8.58
2022-08-19T07:01:13.869Z,7.87
2022-08-19T07:03:46.534Z,8.18
2022-08-19T07:06:44.460Z,8.43
2022-08-19T07:12:20.672Z,7.60
2022-08-19T07:27:06.778Z,7.60
2022-08-19T07:29:38.798Z,6.95
2022-08-19T07:32:11.563Z,7.70
2022-08-19T07:34:42.324Z,7.45
2022-08-19T07:37:12.057Z,7.35
2022-08-19T07:39:44.198Z,7.35
2022-08-19T07:42:14.225Z,6.97
2022-08-19T07:44:50.115Z,7.30
2022-08-19T07:47:50.025Z,7.17
2022-08-19T07:49:46.367Z,6.80
2022-08-19T07:52:15.401Z,7.40
2022-08-19T07:54:44.691Z,7.65
2022-08-19T07:57:13.654Z,6.90
2022-08-19T07:59:42.299Z,6.45
2022-08-19T08:02:15.969Z,6.30
2022-08-19T08:08:00.546Z,6.50
2022-08-19T08:10:31.429Z,6.97
2022-08-19T08:13:19.008Z,6.00
2022-08-19T08:15:49.535Z,6.00
2022-08-19T08:18:27.902Z,6.30
2022-08-19T08:23:41.891Z,6.80
2022-08-19T08:26:10.946Z,6.20
2022-08-19T08:28:55.904Z,7.40
2022-08-19T08:31:29.603Z,6.45
2022-08-19T08:34:00.196Z,6.80
2022-08-19T08:36:34.041Z,6.22
2022-08-19T08:39:12.275Z,6.08
2022-08-19T08:41:50.615Z,6.45
2022-08-19T08:44:45.638Z,5.65
2022-08-19T08:47:21.781Z,5.90
2022-08-19T08:50:02.535Z,5.90
2022-08-19T08:52:50.567Z,7.25
2022-08-19T08:55:26.196Z,5.78
2022-08-19T08:58:32.036Z,5.30
2022-08-19T09:01:05.689Z,5.17
2022-08-19T09:03:39.112Z,5.83
2022-08-19T09:06:36.381Z,4.97
2022-08-19T09:09:28.891Z,5.03
2022-08-19T09:12:07.146Z,5.35
2022-08-19T09:14:52.431Z,5.25
2022-08-19T09:17:26.175Z,5.12
2022-08-19T09:20:00.318Z,4.83
2022-08-19T09:22:37.129Z,5.25
2022-08-19T09:25:08.826Z,4.35
2022-08-19T09:27:43.392Z,4.45
2022-08-19T09:30:13.134Z,4.00
2022-08-19T09:32:44.557Z,3.33
2022-08-19T09:35:14.308Z,3.30
2022-08-19T09:37:45.564Z,4.05
2022-08-19T09:40:14.595Z,3.98
2022-08-19T09:42:50.296Z,4.25
2022-08-19T09:45:37.425Z,4.05
2022-08-19T09:47:58.057Z,3.35
2022-08-19T09:50:27.408Z,3.87
2022-08-19T09:52:57.507Z,3.37
2022-08-19T09:55:31.455Z,3.70
2022-08-19T09:57:58.039Z,3.30
2022-08-19T10:00:27.789Z,3.60
2022-08-19T10:03:01.030Z,4.15
2022-08-19T10:05:48.474Z,4.60
2022-08-19T10:08:50.225Z,46.37
2022-08-19T10:10:52.276Z,6.20
2022-08-19T10:16:20.200Z,4.90
2022-08-19T10:18:58.713Z,4.80
2022-08-19T10:21:28.050Z,3.85
2022-08-19T10:24:01.072Z,5.25
2022-08-19T10:26:32.752Z,5.60
2022-08-19T10:29:04.160Z,4.35
2022-08-19T10:32:01.275Z,4.45
2022-08-19T10:34:30.110Z,5.92
2022-08-19T10:37:02.079Z,4.60
2022-08-19T10:39:42.424Z,6.62
2022-08-19T10:42:08.466Z,4.05
2022-08-19T10:44:44.698Z,10.10
2022-08-19T10:47:21.897Z,5.53
2022-08-19T10:50:12.433Z,6.45
2022-08-19T10:53:11.740Z,5.10
2022-08-19T10:58:56.343Z,4.05
2022-08-19T11:02:04.492Z,3.85
2022-08-19T11:04:35.782Z,3.75
2022-08-19T11:07:13.529Z,4.08
2022-08-19T11:12:35.607Z,4.25
2022-08-19T11:15:04.565Z,3.92
2022-08-19T11:17:33.341Z,4.22
2022-08-19T11:20:05.476Z,4.40
2022-08-19T11:22:46.663Z,4.37
2022-08-19T11:28:27.336Z,4.55
2022-08-19T11:30:51.309Z,5.87
2022-08-19T11:33:27.001Z,4.40
2022-08-19T11:35:55.796Z,4.67
2022-08-19T11:38:57.782Z,4.45
2022-08-19T11:42:04.200Z,4.12
2022-08-19T11:44:38.484Z,4.87
2022-08-19T11:47:12.266Z,4.28
2022-08-19T11:49:41.484Z,4.45
2022-08-19T11:52:11.828Z,4.30
2022-08-19T11:54:40.684Z,4.42
2022-08-19T11:57:16.775Z,4.55
2022-08-19T11:59:54.298Z,4.72
2022-08-19T12:02:53.158Z,4.00
2022-08-19T12:05:10.218Z,4.53
2022-08-19T12:07:39.606Z,4.87
2022-08-19T12:10:10.615Z,4.65
2022-08-19T12:12:43.794Z,4.53
2022-08-19T12:15:15.167Z,4.22
2022-08-19T12:17:44.587Z,4.03
2022-08-19T12:20:18.431Z,4.03
2022-08-19T12:22:47.199Z,4.80
2022-08-19T12:25:20.443Z,4.75
2022-08-19T12:27:57.320Z,4.67
2022-08-19T12:30:21.917Z,4.45
2022-08-19T12:32:58.628Z,4.83
2022-08-19T12:35:27.777Z,4.65
2022-08-19T12:37:57.338Z,5.87
2022-08-19T12:40:26.796Z,4.78
2022-08-19T12:42:56.294Z,6.95
2022-08-19T12:45:25.693Z,15.98
2022-08-19T12:47:56.420Z,4.58
2022-08-19T12:50:31.819Z,5.95
2022-08-19T12:53:04.663Z,7.75
2022-08-19T12:55:38.090Z,5.22
2022-08-19T12:58:36.420Z,6.90
2022-08-19T13:01:14.649Z,5.05
2022-08-19T13:03:51.827Z,6.08
2022-08-19T13:06:20.615Z,10.63
2022-08-19T13:08:52.004Z,5.72
2022-08-19T13:11:26.822Z,4.30
2022-08-19T13:13:56.584Z,5.15
2022-08-19T13:16:29.242Z,7.30
2022-08-19T13:19:02.528Z,6.08
2022-08-19T13:24:39.056Z,5.20
2022-08-19T13:27:08.061Z,4.78
2022-08-19T13:30:02.529Z,5.45
2022-08-19T13:32:46.173Z,9.95
2022-08-19T13:35:18.742Z,6.37
2022-08-19T13:37:49.090Z,5.25
2022-08-19T13:40:24.920Z,3.95
2022-08-19T13:42:57.711Z,4.60
2022-08-19T13:45:28.327Z,5.20
2022-08-19T13:47:59.870Z,7.58
2022-08-19T13:50:32.504Z,4.28
2022-08-19T13:53:05.730Z,4.17
2022-08-19T13:55:34.751Z,5.60
2022-08-19T13:58:07.163Z,10.53
2022-08-19T14:03:39.245Z,5.72
2022-08-19T14:06:28.803Z,6.35
2022-08-19T14:08:53.842Z,4.60
2022-08-19T14:11:26.590Z,4.90
2022-08-19T14:13:55.635Z,5.67
2022-08-19T14:19:23.561Z,4.47
2022-08-19T14:21:54.298Z,4.37
2022-08-19T14:24:25.021Z,4.80
2022-08-19T14:26:54.008Z,4.62
2022-08-19T14:29:23.094Z,4.67
2022-08-19T14:31:53.750Z,4.95
2022-08-19T14:34:26.018Z,5.25
2022-08-19T14:36:55.708Z,4.65
2022-08-19T14:39:32.009Z,5.55
2022-08-19T14:42:11.263Z,4.72
2022-08-19T14:44:44.938Z,4.53
2022-08-19T14:47:36.874Z,4.28
2022-08-19T14:53:19.344Z,4.33
2022-08-19T14:55:53.892Z,4.47
2022-08-19T14:58:43.602Z,4.28
2022-08-19T15:01:06.017Z,4.40
2022-08-19T15:03:51.152Z,4.70
2022-08-19T15:06:35.288Z,4.47
2022-08-19T15:09:07.269Z,4.28
2022-08-19T15:11:40.567Z,5.33
2022-08-19T15:14:12.799Z,5.42
2022-08-19T15:16:43.134Z,4.62
2022-08-19T15:19:12.868Z,6.33
2022-08-19T15:21:42.198Z,4.22
2022-08-19T15:24:10.920Z,4.40
2022-08-19T15:26:39.649Z,4.60
2022-08-19T15:29:08.329Z,4.60
2022-08-19T15:31:38.910Z,4.30
2022-08-19T15:34:10.060Z,3.87
2022-08-19T15:36:54.414Z,4.35
2022-08-19T15:39:23.308Z,4.67
2022-08-19T15:41:57.237Z,4.28
2022-08-19T15:44:28.662Z,4.00
2022-08-19T15:46:57.901Z,5.20
2022-08-19T15:49:27.071Z,4.12
2022-08-19T15:52:09.880Z,4.53
2022-08-19T15:58:34.553Z,9.00
2022-08-19T16:01:40.428Z,5.22
2022-08-19T16:10:47.002Z,4.58
2022-08-19T16:19:28.329Z,3.95
2022-08-19T16:22:01.095Z,5.50
2022-08-19T16:24:35.092Z,4.47
2022-08-19T16:27:06.842Z,4.53
2022-08-19T16:29:39.134Z,4.45
2022-08-19T16:32:10.318Z,4.65
2022-08-19T16:34:42.515Z,7.50
2022-08-19T16:37:11.663Z,6.22
2022-08-19T16:39:44.364Z,4.87
2022-08-19T16:45:05.066Z,4.70
2022-08-19T16:47:33.823Z,4.75
2022-08-19T16:50:05.232Z,4.33
2022-08-19T16:52:35.006Z,5.20
2022-08-19T16:55:22.621Z,4.55
2022-08-19T16:57:54.686Z,5.42
2022-08-19T17:00:23.737Z,5.10
2022-08-19T17:02:54.270Z,5.10
2022-08-19T17:05:23.294Z,5.20
2022-08-19T17:07:53.411Z,5.40
2022-08-19T17:10:22.784Z,6.53
2022-08-19T17:12:57.423Z,5.30
2022-08-19T17:15:26.122Z,5.78
2022-08-19T17:18:14.368Z,5.20
2022-08-19T17:20:44.007Z,5.47
2022-08-19T17:23:15.800Z,5.05
2022-08-19T17:25:44.221Z,6.53
2022-08-19T17:28:25.556Z,5.65
2022-08-19T17:31:07.840Z,8.90
2022-08-19T17:33:48.103Z,6.33
2022-08-19T17:36:10.702Z,7.55
2022-08-19T17:38:42.323Z,10.82
2022-08-19T17:41:11.649Z,12.00
2022-08-19T17:43:43.924Z,9.88
2022-08-19T17:46:17.646Z,9.05
2022-08-19T17:48:47.402Z,8.83
2022-08-19T17:51:24.602Z,7.97
2022-08-19T17:53:57.530Z,8.60
2022-08-19T17:56:28.101Z,8.78
2022-08-19T17:59:01.635Z,11.03
2022-08-19T18:01:44.029Z,9.35
2022-08-19T18:04:06.003Z,12.03
2022-08-19T18:06:36.693Z,12.07
2022-08-19T18:09:10.011Z,12.93
2022-08-19T18:11:45.229Z,13.48
2022-08-19T18:14:15.801Z,15.35
2022-08-19T18:16:45.182Z,17.82
2022-08-19T18:19:17.227Z,14.25
2022-08-19T18:21:47.272Z,16.23
2022-08-19T18:24:16.992Z,15.00
2022-08-19T18:26:45.740Z,16.82
2022-08-19T18:29:15.057Z,18.65
2022-08-19T18:31:47.788Z,19.98
2022-08-19T18:34:17.155Z,19.45
2022-08-19T18:36:54.158Z,20.75
2022-08-19T18:39:35.216Z,19.35
2022-08-19T18:42:23.784Z,19.75
2022-08-19T18:45:12.748Z,19.17
2022-08-19T18:48:00.378Z,18.55
2022-08-19T18:50:29.110Z,19.65
2022-08-19T18:53:01.863Z,19.90
2022-08-19T18:55:30.490Z,17.90
2022-08-19T18:57:59.246Z,18.50
2022-08-19T19:00:27.936Z,17.32
2022-08-19T19:02:58.131Z,15.60
2022-08-19T19:05:32.637Z,16.75
2022-08-19T19:08:01.724Z,13.83
2022-08-19T19:10:31.556Z,14.03
2022-08-19T19:13:01.550Z,14.23
2022-08-19T19:15:30.334Z,13.75
2022-08-19T19:17:59.884Z,13.13
2022-08-19T19:20:36.378Z,15.03
2022-08-19T19:23:03.532Z,12.70
2022-08-19T19:25:50.713Z,13.08
2022-08-19T19:28:04.189Z,13.18
2022-08-19T19:30:36.384Z,11.68
2022-08-19T19:33:05.581Z,11.90
2022-08-19T19:35:36.084Z,12.18
2022-08-19T19:38:06.492Z,14.73
2022-08-19T19:40:35.270Z,13.62
2022-08-19T19:43:05.670Z,11.88
2022-08-19T19:45:34.676Z,10.32
2022-08-19T19:48:03.383Z,9.50
2022-08-19T19:50:32.501Z,9.95
2022-08-19T19:53:01.208Z,9.33
2022-08-19T19:55:29.904Z,8.73
2022-08-19T19:57:58.574Z,8.90
2022-08-19T20:00:30.382Z,9.25
2022-08-19T20:02:59.019Z,8.95
2022-08-19T20:05:27.926Z,8.48
2022-08-19T20:08:15.230Z,8.43
2022-08-19T20:10:45.170Z,8.40
2022-08-19T20:13:15.916Z,9.90
2022-08-19T20:15:47.337Z,8.53
2022-08-19T20:18:17.399Z,8.78
2022-08-19T20:20:48.038Z,8.70
2022-08-19T20:23:21.769Z,9.45
2022-08-19T20:25:52.192Z,9.68
2022-08-19T20:28:22.944Z,10.08
2022-08-19T20:30:52.194Z,8.98
2022-08-19T20:33:21.090Z,8.33
2022-08-19T20:35:51.882Z,7.30
2022-08-19T20:38:23.959Z,8.58
2022-08-19T20:40:54.063Z,9.83
2022-08-19T20:43:22.820Z,9.03
2022-08-19T20:45:51.532Z,8.55
2022-08-19T20:51:00.815Z,8.75
2022-08-19T20:53:29.527Z,7.67
2022-08-19T20:55:59.731Z,7.50
2022-08-19T20:58:29.100Z,7.92
2022-08-19T21:01:01.155Z,7.05
2022-08-19T21:03:42.913Z,7.42
2022-08-19T21:06:10.409Z,6.70
2022-08-19T21:08:42.005Z,7.00
2022-08-19T21:13:54.508Z,7.08
2022-08-19T21:16:36.777Z,6.62
2022-08-19T21:19:07.417Z,6.50
2022-08-19T21:21:36.314Z,6.80
2022-08-19T21:24:20.592Z,6.10
2022-08-19T21:26:52.838Z,6.53
2022-08-19T21:29:23.558Z,6.42
2022-08-19T21:31:53.772Z,6.50
2022-08-19T21:34:30.236Z,6.53
2022-08-19T21:37:00.008Z,7.12
2022-08-19T21:39:31.804Z,6.80
2022-08-19T21:42:05.174Z,7.08
2022-08-19T21:44:33.999Z,6.50
2022-08-19T21:49:17.963Z,6.60
2022-08-19T21:49:41.501Z,6.78
2022-08-19T21:52:12.723Z,7.03
2022-08-19T21:54:42.455Z,6.60
2022-08-19T21:57:17.393Z,6.35
2022-08-19T21:59:49.544Z,6.60
2022-08-19T22:02:25.628Z,6.62
2022-08-19T22:04:58.977Z,6.65
2022-08-19T22:07:32.624Z,6.65
2022-08-19T22:10:17.070Z,6.62
2022-08-19T22:13:13.758Z,7.00
2022-08-19T22:15:47.949Z,6.58
2022-08-19T22:18:34.860Z,6.75
2022-08-19T22:21:01.196Z,6.53
2022-08-19T22:23:31.897Z,6.67
2022-08-19T22:26:03.895Z,6.47
2022-08-19T22:28:34.300Z,6.22
2022-08-19T22:31:10.157Z,5.92
2022-08-19T22:33:42.782Z,6.17
2022-08-19T22:36:12.015Z,6.53
2022-08-19T22:38:42.086Z,6.28
2022-08-19T22:41:20.880Z,6.60
2022-08-19T22:43:52.761Z,6.00
2022-08-19T22:46:22.003Z,6.53
2022-08-19T22:49:00.943Z,6.10
2022-08-19T22:51:41.056Z,6.37
2022-08-19T22:54:09.884Z,6.03
2022-08-19T22:56:39.740Z,6.55
2022-08-19T22:59:08.606Z,6.95
2022-08-19T23:01:38.946Z,6.40
2022-08-19T23:04:07.861Z,6.35
2022-08-19T23:06:55.776Z,6.30
2022-08-19T23:09:30.437Z,6.42
2022-08-19T23:12:00.932Z,6.10
2022-08-19T23:14:36.050Z,5.87
2022-08-19T23:17:10.045Z,6.17
2022-08-19T23:19:39.148Z,6.15
2022-08-19T23:22:09.503Z,6.47
2022-08-19T23:24:41.075Z,6.40
2022-08-19T23:27:31.046Z,6.12
2022-08-19T23:30:19.983Z,6.35
2022-08-19T23:32:48.854Z,6.50
2022-08-19T23:35:17.639Z,6.55
2022-08-19T23:37:47.050Z,6.87
2022-08-19T23:40:21.152Z,6.60
2022-08-19T23:42:52.003Z,6.20
2022-08-19T23:45:23.949Z,6.05
2022-08-19T23:47:57.649Z,6.50
2022-08-19T23:50:27.773Z,5.90
2022-08-19T23:52:59.047Z,5.75
2022-08-19T23:55:30.677Z,7.00
2022-08-19T23:58:00.050Z,6.78
